sensor_id;sensor_type;location;lat;lon;timestamp;temperature;humidity
3850;DHT22;1940;51.052;13.678;2022-12-07T00:01:39;3.20;93.50
3850;DHT22;1940;51.052;13.678;2022-12-07T00:04:07;3.20;93.40
3850;DHT22;1940;51.052;13.678;2022-12-07T00:06:37;3.30;93.30
3850;DHT22;1940;51.052;13.678;2022-12-07T00:09:05;3.30;93.20
3850;DHT22;1940;51.052;13.678;2022-12-07T00:11:31;3.30;93.10
3850;DHT22;1940;51.052;13.678;2022-12-07T00:13:59;3.30;93.20
3850;DHT22;1940;51.052;13.678;2022-12-07T00:16:28;3.40;93.10
3850;DHT22;1940;51.052;13.678;2022-12-07T00:18:54;3.40;93.00
3850;DHT22;1940;51.052;13.678;2022-12-07T00:21:32;3.50;92.90
3850;DHT22;1940;51.052;13.678;2022-12-07T00:23:58;3.40;92.70
3850;DHT22;1940;51.052;13.678;2022-12-07T00:26:30;3.40;92.50
3850;DHT22;1940;51.052;13.678;2022-12-07T00:28:59;3.40;92.50
3850;DHT22;1940;51.052;13.678;2022-12-07T00:31:27;3.30;92.60
3850;DHT22;1940;51.052;13.678;2022-12-07T00:33:53;3.30;92.80
3850;DHT22;1940;51.052;13.678;2022-12-07T00:36:22;3.30;92.70
3850;DHT22;1940;51.052;13.678;2022-12-07T00:38:48;3.30;92.50
3850;DHT22;1940;51.052;13.678;2022-12-07T00:41:16;3.30;92.80
3850;DHT22;1940;51.052;13.678;2022-12-07T00:43:43;3.30;93.00
3850;DHT22;1940;51.052;13.678;2022-12-07T00:46:08;3.20;92.90
3850;DHT22;1940;51.052;13.678;2022-12-07T00:48:34;3.30;93.10
3850;DHT22;1940;51.052;13.678;2022-12-07T00:51:00;3.30;93.10
3850;DHT22;1940;51.052;13.678;2022-12-07T00:53:27;3.30;93.00
3850;DHT22;1940;51.052;13.678;2022-12-07T00:55:52;3.30;93.00
3850;DHT22;1940;51.052;13.678;2022-12-07T00:58:18;3.40;92.90
3850;DHT22;1940;51.052;13.678;2022-12-07T01:00:44;3.40;92.80
3850;DHT22;1940;51.052;13.678;2022-12-07T01:03:12;3.40;92.80
3850;DHT22;1940;51.052;13.678;2022-12-07T01:05:38;3.40;92.80
3850;DHT22;1940;51.052;13.678;2022-12-07T01:08:04;3.40;92.80
3850;DHT22;1940;51.052;13.678;2022-12-07T01:10:30;3.40;92.90
3850;DHT22;1940;51.052;13.678;2022-12-07T01:12:57;3.50;92.50
3850;DHT22;1940;51.052;13.678;2022-12-07T01:15:23;3.50;92.50
3850;DHT22;1940;51.052;13.678;2022-12-07T01:17:48;3.50;92.30
3850;DHT22;1940;51.052;13.678;2022-12-07T01:20:14;3.50;92.30
3850;DHT22;1940;51.052;13.678;2022-12-07T01:22:41;3.50;92.20
3850;DHT22;1940;51.052;13.678;2022-12-07T01:25:09;3.50;92.30
3850;DHT22;1940;51.052;13.678;2022-12-07T01:27:35;3.50;92.20
3850;DHT22;1940;51.052;13.678;2022-12-07T01:30:02;3.50;92.10
3850;DHT22;1940;51.052;13.678;2022-12-07T01:32:29;3.50;91.90
3850;DHT22;1940;51.052;13.678;2022-12-07T01:34:54;3.50;92.00
3850;DHT22;1940;51.052;13.678;2022-12-07T01:37:20;3.50;92.20
3850;DHT22;1940;51.052;13.678;2022-12-07T01:39:48;3.50;92.00
3850;DHT22;1940;51.052;13.678;2022-12-07T01:42:14;3.40;92.10
3850;DHT22;1940;51.052;13.678;2022-12-07T01:45:34;3.40;92.10
3850;DHT22;1940;51.052;13.678;2022-12-07T01:47:53;3.40;92.30
3850;DHT22;1940;51.052;13.678;2022-12-07T01:50:21;3.30;92.80
3850;DHT22;1940;51.052;13.678;2022-12-07T01:52:50;3.20;92.80
3850;DHT22;1940;51.052;13.678;2022-12-07T01:55:17;3.10;93.10
3850;DHT22;1940;51.052;13.678;2022-12-07T01:57:49;3.10;93.40
3850;DHT22;1940;51.052;13.678;2022-12-07T02:00:16;3.20;93.20
3850;DHT22;1940;51.052;13.678;2022-12-07T02:02:55;3.10;93.30
3850;DHT22;1940;51.052;13.678;2022-12-07T02:05:24;3.00;93.50
3850;DHT22;1940;51.052;13.678;2022-12-07T02:07:51;3.00;93.90
3850;DHT22;1940;51.052;13.678;2022-12-07T02:10:21;3.00;94.00
3850;DHT22;1940;51.052;13.678;2022-12-07T02:13:11;3.00;93.90
3850;DHT22;1940;51.052;13.678;2022-12-07T02:21:38;2.70;94.20
3850;DHT22;1940;51.052;13.678;2022-12-07T02:27:11;2.60;94.20
3850;DHT22;1940;51.052;13.678;2022-12-07T02:33:42;2.50;94.00
3850;DHT22;1940;51.052;13.678;2022-12-07T02:35:48;2.50;94.30
3850;DHT22;1940;51.052;13.678;2022-12-07T02:38:26;2.50;94.40
3850;DHT22;1940;51.052;13.678;2022-12-07T02:43:41;2.50;94.30
3850;DHT22;1940;51.052;13.678;2022-12-07T02:46:14;2.50;94.50
3850;DHT22;1940;51.052;13.678;2022-12-07T02:48:43;2.40;94.40
3850;DHT22;1940;51.052;13.678;2022-12-07T02:51:08;2.40;94.60
3850;DHT22;1940;51.052;13.678;2022-12-07T02:53:42;2.50;94.70
3850;DHT22;1940;51.052;13.678;2022-12-07T02:56:27;2.40;94.60
3850;DHT22;1940;51.052;13.678;2022-12-07T02:59:00;2.50;94.50
3850;DHT22;1940;51.052;13.678;2022-12-07T03:06:54;2.60;94.00
3850;DHT22;1940;51.052;13.678;2022-12-07T03:12:20;2.60;93.90
3850;DHT22;1940;51.052;13.678;2022-12-07T03:14:52;2.70;93.60
3850;DHT22;1940;51.052;13.678;2022-12-07T03:17:26;2.80;93.40
3850;DHT22;1940;51.052;13.678;2022-12-07T03:19:55;2.80;93.30
3850;DHT22;1940;51.052;13.678;2022-12-07T03:22:23;2.80;93.10
3850;DHT22;1940;51.052;13.678;2022-12-07T03:24:57;2.70;93.00
3850;DHT22;1940;51.052;13.678;2022-12-07T03:27:27;2.70;93.00
3850;DHT22;1940;51.052;13.678;2022-12-07T03:30:02;2.80;92.80
3850;DHT22;1940;51.052;13.678;2022-12-07T03:32:48;2.70;92.80
3850;DHT22;1940;51.052;13.678;2022-12-07T03:35:34;2.70;92.90
3850;DHT22;1940;51.052;13.678;2022-12-07T03:38:05;2.60;92.80
3850;DHT22;1940;51.052;13.678;2022-12-07T03:40:48;2.60;92.80
3850;DHT22;1940;51.052;13.678;2022-12-07T03:43:15;2.50;92.90
3850;DHT22;1940;51.052;13.678;2022-12-07T03:45:44;2.50;92.70
3850;DHT22;1940;51.052;13.678;2022-12-07T03:50:46;2.50;92.70
3850;DHT22;1940;51.052;13.678;2022-12-07T03:53:31;2.50;92.50
3850;DHT22;1940;51.052;13.678;2022-12-07T03:56:01;2.40;92.30
3850;DHT22;1940;51.052;13.678;2022-12-07T03:58:27;2.30;92.20
3850;DHT22;1940;51.052;13.678;2022-12-07T04:00:55;2.40;92.20
3850;DHT22;1940;51.052;13.678;2022-12-07T04:03:20;2.30;92.30
3850;DHT22;1940;51.052;13.678;2022-12-07T04:05:46;2.30;92.30
3850;DHT22;1940;51.052;13.678;2022-12-07T04:08:12;2.30;92.20
3850;DHT22;1940;51.052;13.678;2022-12-07T04:10:37;2.30;92.10
3850;DHT22;1940;51.052;13.678;2022-12-07T04:13:03;2.30;91.90
3850;DHT22;1940;51.052;13.678;2022-12-07T04:15:29;2.30;91.90
3850;DHT22;1940;51.052;13.678;2022-12-07T04:17:54;2.40;91.60
3850;DHT22;1940;51.052;13.678;2022-12-07T04:20:20;2.40;91.60
3850;DHT22;1940;51.052;13.678;2022-12-07T04:22:46;2.30;91.30
3850;DHT22;1940;51.052;13.678;2022-12-07T04:25:12;2.40;91.20
3850;DHT22;1940;51.052;13.678;2022-12-07T04:27:37;2.40;91.00
3850;DHT22;1940;51.052;13.678;2022-12-07T04:30:04;2.30;91.20
3850;DHT22;1940;51.052;13.678;2022-12-07T04:32:30;2.30;91.00
3850;DHT22;1940;51.052;13.678;2022-12-07T04:34:55;2.30;91.00
3850;DHT22;1940;51.052;13.678;2022-12-07T04:37:21;2.30;91.10
3850;DHT22;1940;51.052;13.678;2022-12-07T04:39:47;2.30;90.90
3850;DHT22;1940;51.052;13.678;2022-12-07T04:42:12;2.30;90.70
3850;DHT22;1940;51.052;13.678;2022-12-07T04:44:38;2.30;90.70
3850;DHT22;1940;51.052;13.678;2022-12-07T04:47:04;2.30;90.30
3850;DHT22;1940;51.052;13.678;2022-12-07T04:49:30;2.30;89.90
3850;DHT22;1940;51.052;13.678;2022-12-07T04:51:55;2.30;89.90
3850;DHT22;1940;51.052;13.678;2022-12-07T04:54:21;2.30;90.20
3850;DHT22;1940;51.052;13.678;2022-12-07T04:56:46;2.30;90.30
3850;DHT22;1940;51.052;13.678;2022-12-07T04:59:13;2.20;90.10
3850;DHT22;1940;51.052;13.678;2022-12-07T05:01:39;2.20;90.10
3850;DHT22;1940;51.052;13.678;2022-12-07T05:04:05;2.20;90.10
3850;DHT22;1940;51.052;13.678;2022-12-07T05:06:31;2.30;90.00
3850;DHT22;1940;51.052;13.678;2022-12-07T05:08:56;2.20;90.00
3850;DHT22;1940;51.052;13.678;2022-12-07T05:11:22;2.30;89.80
3850;DHT22;1940;51.052;13.678;2022-12-07T05:14:05;2.20;89.80
3850;DHT22;1940;51.052;13.678;2022-12-07T05:16:31;2.20;90.10
3850;DHT22;1940;51.052;13.678;2022-12-07T05:18:57;2.20;90.00
3850;DHT22;1940;51.052;13.678;2022-12-07T05:21:23;2.20;89.80
3850;DHT22;1940;51.052;13.678;2022-12-07T05:23:49;2.30;89.80
3850;DHT22;1940;51.052;13.678;2022-12-07T05:26:14;2.20;89.70
3850;DHT22;1940;51.052;13.678;2022-12-07T05:28:40;2.30;89.60
3850;DHT22;1940;51.052;13.678;2022-12-07T05:31:05;2.30;89.60
3850;DHT22;1940;51.052;13.678;2022-12-07T05:33:31;2.30;89.90
3850;DHT22;1940;51.052;13.678;2022-12-07T05:35:57;2.40;89.50
3850;DHT22;1940;51.052;13.678;2022-12-07T05:38:23;2.50;89.10
3850;DHT22;1940;51.052;13.678;2022-12-07T05:40:50;2.50;89.00
3850;DHT22;1940;51.052;13.678;2022-12-07T05:43:16;2.50;89.10
3850;DHT22;1940;51.052;13.678;2022-12-07T05:45:41;2.60;88.60
3850;DHT22;1940;51.052;13.678;2022-12-07T05:48:07;2.60;88.60
3850;DHT22;1940;51.052;13.678;2022-12-07T05:50:32;2.60;88.60
3850;DHT22;1940;51.052;13.678;2022-12-07T05:52:58;2.60;88.20
3850;DHT22;1940;51.052;13.678;2022-12-07T05:55:23;2.70;87.80
3850;DHT22;1940;51.052;13.678;2022-12-07T05:57:49;2.70;87.60
3850;DHT22;1940;51.052;13.678;2022-12-07T06:00:33;2.70;87.80
3850;DHT22;1940;51.052;13.678;2022-12-07T06:02:59;2.70;87.80
3850;DHT22;1940;51.052;13.678;2022-12-07T06:05:24;2.70;87.60
3850;DHT22;1940;51.052;13.678;2022-12-07T06:07:50;2.80;87.70
3850;DHT22;1940;51.052;13.678;2022-12-07T06:10:15;2.80;87.60
3850;DHT22;1940;51.052;13.678;2022-12-07T06:12:41;2.90;87.60
3850;DHT22;1940;51.052;13.678;2022-12-07T06:15:09;3.00;87.10
3850;DHT22;1940;51.052;13.678;2022-12-07T06:17:35;3.10;86.50
3850;DHT22;1940;51.052;13.678;2022-12-07T06:20:00;3.10;86.80
3850;DHT22;1940;51.052;13.678;2022-12-07T06:22:26;3.10;86.60
3850;DHT22;1940;51.052;13.678;2022-12-07T06:24:52;3.10;86.50
3850;DHT22;1940;51.052;13.678;2022-12-07T06:27:17;3.10;86.70
3850;DHT22;1940;51.052;13.678;2022-12-07T06:29:43;3.10;86.80
3850;DHT22;1940;51.052;13.678;2022-12-07T06:32:08;3.10;87.20
3850;DHT22;1940;51.052;13.678;2022-12-07T06:34:34;3.10;87.80
3850;DHT22;1940;51.052;13.678;2022-12-07T06:37:00;3.10;88.00
3850;DHT22;1940;51.052;13.678;2022-12-07T06:39:27;3.10;88.10
3850;DHT22;1940;51.052;13.678;2022-12-07T06:41:53;3.10;88.30
3850;DHT22;1940;51.052;13.678;2022-12-07T06:44:19;3.00;89.00
3850;DHT22;1940;51.052;13.678;2022-12-07T06:46:45;3.00;89.80
3850;DHT22;1940;51.052;13.678;2022-12-07T06:49:12;2.90;90.30
3850;DHT22;1940;51.052;13.678;2022-12-07T06:51:38;2.90;90.90
3850;DHT22;1940;51.052;13.678;2022-12-07T06:54:07;3.00;90.90
3850;DHT22;1940;51.052;13.678;2022-12-07T06:56:33;3.00;91.10
3850;DHT22;1940;51.052;13.678;2022-12-07T06:58:59;2.90;91.50
3850;DHT22;1940;51.052;13.678;2022-12-07T07:01:24;2.90;91.70
3850;DHT22;1940;51.052;13.678;2022-12-07T07:03:50;2.90;91.90
3850;DHT22;1940;51.052;13.678;2022-12-07T07:06:15;2.90;92.10
3850;DHT22;1940;51.052;13.678;2022-12-07T07:08:41;2.90;92.60
3850;DHT22;1940;51.052;13.678;2022-12-07T07:11:07;2.90;93.20
3850;DHT22;1940;51.052;13.678;2022-12-07T07:13:33;2.90;93.20
3850;DHT22;1940;51.052;13.678;2022-12-07T07:15:59;2.90;93.80
3850;DHT22;1940;51.052;13.678;2022-12-07T07:18:26;2.80;93.90
3850;DHT22;1940;51.052;13.678;2022-12-07T07:20:52;2.80;94.30
3850;DHT22;1940;51.052;13.678;2022-12-07T07:23:18;2.70;94.60
3850;DHT22;1940;51.052;13.678;2022-12-07T07:25:44;2.70;94.80
3850;DHT22;1940;51.052;13.678;2022-12-07T07:28:10;2.70;95.10
3850;DHT22;1940;51.052;13.678;2022-12-07T07:30:36;2.60;95.20
3850;DHT22;1940;51.052;13.678;2022-12-07T07:33:03;2.60;95.20
3850;DHT22;1940;51.052;13.678;2022-12-07T07:35:29;2.60;95.20
3850;DHT22;1940;51.052;13.678;2022-12-07T07:37:55;2.60;95.20
3850;DHT22;1940;51.052;13.678;2022-12-07T07:40:21;2.60;95.20
3850;DHT22;1940;51.052;13.678;2022-12-07T07:42:48;2.60;95.20
3850;DHT22;1940;51.052;13.678;2022-12-07T07:45:14;2.60;95.20
3850;DHT22;1940;51.052;13.678;2022-12-07T07:47:39;2.70;95.20
3850;DHT22;1940;51.052;13.678;2022-12-07T07:50:05;2.70;95.20
3850;DHT22;1940;51.052;13.678;2022-12-07T07:52:31;2.70;95.20
3850;DHT22;1940;51.052;13.678;2022-12-07T07:54:57;2.80;95.20
3850;DHT22;1940;51.052;13.678;2022-12-07T07:57:22;2.90;95.20
3850;DHT22;1940;51.052;13.678;2022-12-07T07:59:48;3.00;95.20
3850;DHT22;1940;51.052;13.678;2022-12-07T08:02:16;3.00;95.20
3850;DHT22;1940;51.052;13.678;2022-12-07T08:04:42;3.10;95.20
3850;DHT22;1940;51.052;13.678;2022-12-07T08:07:08;3.20;95.20
3850;DHT22;1940;51.052;13.678;2022-12-07T08:09:34;3.20;95.00
3850;DHT22;1940;51.052;13.678;2022-12-07T08:11:59;3.20;95.20
3850;DHT22;1940;51.052;13.678;2022-12-07T08:14:25;3.30;95.10
3850;DHT22;1940;51.052;13.678;2022-12-07T08:16:52;3.30;94.40
3850;DHT22;1940;51.052;13.678;2022-12-07T08:19:18;3.40;94.20
3850;DHT22;1940;51.052;13.678;2022-12-07T08:21:44;3.40;94.00
3850;DHT22;1940;51.052;13.678;2022-12-07T08:24:09;3.60;94.10
3850;DHT22;1940;51.052;13.678;2022-12-07T08:26:35;3.70;93.30
3850;DHT22;1940;51.052;13.678;2022-12-07T08:29:00;3.80;92.80
3850;DHT22;1940;51.052;13.678;2022-12-07T08:31:26;3.90;92.10
3850;DHT22;1940;51.052;13.678;2022-12-07T08:33:53;4.30;91.40
3850;DHT22;1940;51.052;13.678;2022-12-07T08:36:19;4.60;89.80
3850;DHT22;1940;51.052;13.678;2022-12-07T08:38:44;4.60;88.80
3850;DHT22;1940;51.052;13.678;2022-12-07T08:41:10;4.60;88.50
3850;DHT22;1940;51.052;13.678;2022-12-07T08:43:36;4.70;88.80
3850;DHT22;1940;51.052;13.678;2022-12-07T08:49:03;4.80;88.30
3850;DHT22;1940;51.052;13.678;2022-12-07T08:51:30;4.80;88.20
3850;DHT22;1940;51.052;13.678;2022-12-07T08:53:58;4.60;88.00
3850;DHT22;1940;51.052;13.678;2022-12-07T08:56:26;4.50;88.70
3850;DHT22;1940;51.052;13.678;2022-12-07T08:58:52;4.40;89.00
3850;DHT22;1940;51.052;13.678;2022-12-07T09:01:18;4.40;89.50
3850;DHT22;1940;51.052;13.678;2022-12-07T09:03:43;4.40;89.50
3850;DHT22;1940;51.052;13.678;2022-12-07T09:06:09;4.50;89.80
3850;DHT22;1940;51.052;13.678;2022-12-07T09:08:47;4.80;89.00
3850;DHT22;1940;51.052;13.678;2022-12-07T09:11:14;5.20;87.40
3850;DHT22;1940;51.052;13.678;2022-12-07T09:13:40;5.10;86.20
3850;DHT22;1940;51.052;13.678;2022-12-07T09:16:05;5.10;86.40
3850;DHT22;1940;51.052;13.678;2022-12-07T09:18:31;5.10;86.60
3850;DHT22;1940;51.052;13.678;2022-12-07T09:20:57;5.00;86.50
3850;DHT22;1940;51.052;13.678;2022-12-07T09:23:23;5.10;86.50
3850;DHT22;1940;51.052;13.678;2022-12-07T09:25:48;5.10;86.80
3850;DHT22;1940;51.052;13.678;2022-12-07T09:28:14;5.20;86.80
3850;DHT22;1940;51.052;13.678;2022-12-07T09:30:46;5.20;85.60
3850;DHT22;1940;51.052;13.678;2022-12-07T09:33:12;5.20;85.40
3850;DHT22;1940;51.052;13.678;2022-12-07T09:35:37;5.20;85.40
3850;DHT22;1940;51.052;13.678;2022-12-07T09:38:03;5.30;86.30
3850;DHT22;1940;51.052;13.678;2022-12-07T09:40:28;5.30;85.50
3850;DHT22;1940;51.052;13.678;2022-12-07T09:42:55;5.20;85.40
3850;DHT22;1940;51.052;13.678;2022-12-07T09:45:33;5.20;85.50
3850;DHT22;1940;51.052;13.678;2022-12-07T09:47:59;5.30;85.60
3850;DHT22;1940;51.052;13.678;2022-12-07T09:50:27;5.40;84.50
3850;DHT22;1940;51.052;13.678;2022-12-07T09:53:00;5.40;85.00
3850;DHT22;1940;51.052;13.678;2022-12-07T09:55:29;5.40;84.30
3850;DHT22;1940;51.052;13.678;2022-12-07T09:57:56;5.80;84.00
3850;DHT22;1940;51.052;13.678;2022-12-07T10:00:23;6.60;81.80
3850;DHT22;1940;51.052;13.678;2022-12-07T10:03:00;6.80;80.80
3850;DHT22;1940;51.052;13.678;2022-12-07T10:05:38;7.10;80.00
3850;DHT22;1940;51.052;13.678;2022-12-07T10:08:05;7.20;79.70
3850;DHT22;1940;51.052;13.678;2022-12-07T10:10:34;7.80;78.20
3850;DHT22;1940;51.052;13.678;2022-12-07T10:13:06;8.30;76.30
3850;DHT22;1940;51.052;13.678;2022-12-07T10:15:53;8.90;74.80
3850;DHT22;1940;51.052;13.678;2022-12-07T10:18:39;9.10;72.90
3850;DHT22;1940;51.052;13.678;2022-12-07T10:21:13;9.40;73.00
3850;DHT22;1940;51.052;13.678;2022-12-07T10:23:43;8.70;73.60
3850;DHT22;1940;51.052;13.678;2022-12-07T10:26:35;8.60;74.60
3850;DHT22;1940;51.052;13.678;2022-12-07T10:29:17;8.40;75.10
3850;DHT22;1940;51.052;13.678;2022-12-07T10:31:45;8.20;75.20
3850;DHT22;1940;51.052;13.678;2022-12-07T10:34:38;7.90;76.30
3850;DHT22;1940;51.052;13.678;2022-12-07T10:37:21;7.50;77.80
3850;DHT22;1940;51.052;13.678;2022-12-07T10:39:53;7.10;78.80
3850;DHT22;1940;51.052;13.678;2022-12-07T10:42:21;6.90;79.90
3850;DHT22;1940;51.052;13.678;2022-12-07T10:44:48;6.70;80.70
3850;DHT22;1940;51.052;13.678;2022-12-07T10:47:30;6.70;80.90
3850;DHT22;1940;51.052;13.678;2022-12-07T10:58:31;6.30;83.20
3850;DHT22;1940;51.052;13.678;2022-12-07T11:06:26;6.10;84.10
3850;DHT22;1940;51.052;13.678;2022-12-07T11:09:12;6.00;83.90
3850;DHT22;1940;51.052;13.678;2022-12-07T11:12:17;6.20;83.80
3850;DHT22;1940;51.052;13.678;2022-12-07T11:14:58;6.10;83.90
3850;DHT22;1940;51.052;13.678;2022-12-07T11:23:42;6.10;84.40
3850;DHT22;1940;51.052;13.678;2022-12-07T11:31:41;6.10;84.10
3850;DHT22;1940;51.052;13.678;2022-12-07T11:36:52;5.60;87.40
3850;DHT22;1940;51.052;13.678;2022-12-07T11:39:26;5.30;88.10
3850;DHT22;1940;51.052;13.678;2022-12-07T11:42:01;5.00;89.30
3850;DHT22;1940;51.052;13.678;2022-12-07T11:44:39;5.00;89.90
3850;DHT22;1940;51.052;13.678;2022-12-07T11:47:09;4.90;90.90
3850;DHT22;1940;51.052;13.678;2022-12-07T11:49:54;4.80;90.90
3850;DHT22;1940;51.052;13.678;2022-12-07T11:58:04;4.90;91.60
3850;DHT22;1940;51.052;13.678;2022-12-07T12:00:35;4.90;90.90
3850;DHT22;1940;51.052;13.678;2022-12-07T12:03:09;5.00;91.00
3850;DHT22;1940;51.052;13.678;2022-12-07T12:05:36;4.90;90.50
3850;DHT22;1940;51.052;13.678;2022-12-07T12:08:31;5.00;91.10
3850;DHT22;1940;51.052;13.678;2022-12-07T12:17:12;5.50;88.60
3850;DHT22;1940;51.052;13.678;2022-12-07T12:19:56;5.60;87.10
3850;DHT22;1940;51.052;13.678;2022-12-07T12:22:42;5.70;87.40
3850;DHT22;1940;51.052;13.678;2022-12-07T12:25:25;5.70;87.00
3850;DHT22;1940;51.052;13.678;2022-12-07T12:27:53;5.70;86.30
3850;DHT22;1940;51.052;13.678;2022-12-07T12:30:39;5.60;86.70
3850;DHT22;1940;51.052;13.678;2022-12-07T12:33:28;5.50;86.70
3850;DHT22;1940;51.052;13.678;2022-12-07T12:47:39;4.20;91.70
3850;DHT22;1940;51.052;13.678;2022-12-07T12:53:14;4.10;92.80
3850;DHT22;1940;51.052;13.678;2022-12-07T12:55:49;4.10;93.10
3850;DHT22;1940;51.052;13.678;2022-12-07T13:01:33;3.90;93.80
3850;DHT22;1940;51.052;13.678;2022-12-07T13:03:31;3.90;94.00
3850;DHT22;1940;51.052;13.678;2022-12-07T13:06:19;3.90;94.20
3850;DHT22;1940;51.052;13.678;2022-12-07T13:08:46;3.80;94.60
3850;DHT22;1940;51.052;13.678;2022-12-07T13:11:40;3.80;94.70
3850;DHT22;1940;51.052;13.678;2022-12-07T13:14:39;3.90;95.00
3850;DHT22;1940;51.052;13.678;2022-12-07T13:27:34;4.00;94.30
3850;DHT22;1940;51.052;13.678;2022-12-07T13:30:00;3.90;94.50
3850;DHT22;1940;51.052;13.678;2022-12-07T13:32:32;3.80;94.40
3850;DHT22;1940;51.052;13.678;2022-12-07T13:34:57;3.70;94.70
3850;DHT22;1940;51.052;13.678;2022-12-07T13:37:31;3.70;95.10
3850;DHT22;1940;51.052;13.678;2022-12-07T13:39:59;3.60;95.20
3850;DHT22;1940;51.052;13.678;2022-12-07T13:42:31;3.70;95.20
3850;DHT22;1940;51.052;13.678;2022-12-07T13:44:59;3.70;95.10
3850;DHT22;1940;51.052;13.678;2022-12-07T13:47:32;3.70;95.00
3850;DHT22;1940;51.052;13.678;2022-12-07T13:50:00;3.60;95.00
3850;DHT22;1940;51.052;13.678;2022-12-07T13:52:28;3.70;95.20
3850;DHT22;1940;51.052;13.678;2022-12-07T13:57:33;3.80;95.20
3850;DHT22;1940;51.052;13.678;2022-12-07T14:00:02;3.80;95.20
3850;DHT22;1940;51.052;13.678;2022-12-07T14:02:30;3.80;95.20
3850;DHT22;1940;51.052;13.678;2022-12-07T14:05:34;3.90;95.20
3850;DHT22;1940;51.052;13.678;2022-12-07T14:08:04;4.00;95.20
3850;DHT22;1940;51.052;13.678;2022-12-07T14:10:39;4.00;94.80
3850;DHT22;1940;51.052;13.678;2022-12-07T14:13:32;4.10;94.60
3850;DHT22;1940;51.052;13.678;2022-12-07T14:16:00;4.10;94.40
3850;DHT22;1940;51.052;13.678;2022-12-07T14:18:34;4.00;94.40
3850;DHT22;1940;51.052;13.678;2022-12-07T14:23:34;4.10;94.70
3850;DHT22;1940;51.052;13.678;2022-12-07T14:26:12;4.10;94.60
3850;DHT22;1940;51.052;13.678;2022-12-07T14:28:39;4.20;94.80
3850;DHT22;1940;51.052;13.678;2022-12-07T14:31:14;4.20;94.70
3850;DHT22;1940;51.052;13.678;2022-12-07T14:33:40;4.20;94.60
3850;DHT22;1940;51.052;13.678;2022-12-07T14:36:09;4.30;94.40
3850;DHT22;1940;51.052;13.678;2022-12-07T14:38:35;4.40;94.00
3850;DHT22;1940;51.052;13.678;2022-12-07T14:41:01;4.40;93.80
3850;DHT22;1940;51.052;13.678;2022-12-07T14:43:45;4.40;93.40
3850;DHT22;1940;51.052;13.678;2022-12-07T14:46:11;4.40;93.40
3850;DHT22;1940;51.052;13.678;2022-12-07T14:48:36;4.40;93.40
3850;DHT22;1940;51.052;13.678;2022-12-07T14:51:02;4.40;93.00
3850;DHT22;1940;51.052;13.678;2022-12-07T14:53:36;4.40;92.50
3850;DHT22;1940;51.052;13.678;2022-12-07T14:56:02;4.40;92.40
3850;DHT22;1940;51.052;13.678;2022-12-07T14:58:30;4.30;91.80
3850;DHT22;1940;51.052;13.678;2022-12-07T15:00:56;4.30;91.80
3850;DHT22;1940;51.052;13.678;2022-12-07T15:03:21;4.30;91.70
3850;DHT22;1940;51.052;13.678;2022-12-07T15:05:47;4.20;91.70
3850;DHT22;1940;51.052;13.678;2022-12-07T15:08:13;4.20;91.60
3850;DHT22;1940;51.052;13.678;2022-12-07T15:10:39;4.20;91.70
3850;DHT22;1940;51.052;13.678;2022-12-07T15:13:06;4.30;91.50
3850;DHT22;1940;51.052;13.678;2022-12-07T15:15:52;4.30;91.30
3850;DHT22;1940;51.052;13.678;2022-12-07T15:18:18;4.30;91.00
3850;DHT22;1940;51.052;13.678;2022-12-07T15:20:45;4.30;91.10
3850;DHT22;1940;51.052;13.678;2022-12-07T15:23:11;4.20;91.30
3850;DHT22;1940;51.052;13.678;2022-12-07T15:25:39;4.30;91.50
3850;DHT22;1940;51.052;13.678;2022-12-07T15:28:05;4.30;90.90
3850;DHT22;1940;51.052;13.678;2022-12-07T15:30:31;4.30;90.70
3850;DHT22;1940;51.052;13.678;2022-12-07T15:32:56;4.30;90.70
3850;DHT22;1940;51.052;13.678;2022-12-07T15:35:22;4.30;90.90
3850;DHT22;1940;51.052;13.678;2022-12-07T15:37:47;4.30;91.10
3850;DHT22;1940;51.052;13.678;2022-12-07T15:40:13;4.30;90.40
3850;DHT22;1940;51.052;13.678;2022-12-07T15:42:39;4.40;89.70
3850;DHT22;1940;51.052;13.678;2022-12-07T15:45:07;4.30;89.20
3850;DHT22;1940;51.052;13.678;2022-12-07T15:47:38;4.30;89.20
3850;DHT22;1940;51.052;13.678;2022-12-07T15:50:06;4.30;89.10
3850;DHT22;1940;51.052;13.678;2022-12-07T15:52:32;4.20;89.00
3850;DHT22;1940;51.052;13.678;2022-12-07T15:54:58;4.20;89.40
3850;DHT22;1940;51.052;13.678;2022-12-07T15:57:25;4.30;88.90
3850;DHT22;1940;51.052;13.678;2022-12-07T15:59:51;4.30;89.10
3850;DHT22;1940;51.052;13.678;2022-12-07T16:02:17;4.30;89.00
3850;DHT22;1940;51.052;13.678;2022-12-07T16:04:42;4.30;89.60
3850;DHT22;1940;51.052;13.678;2022-12-07T16:07:08;4.30;89.80
3850;DHT22;1940;51.052;13.678;2022-12-07T16:09:34;4.20;90.10
3850;DHT22;1940;51.052;13.678;2022-12-07T16:11:59;4.20;90.00
3850;DHT22;1940;51.052;13.678;2022-12-07T16:14:25;4.20;90.20
3850;DHT22;1940;51.052;13.678;2022-12-07T16:16:50;4.30;90.20
3850;DHT22;1940;51.052;13.678;2022-12-07T16:19:16;4.30;89.60
3850;DHT22;1940;51.052;13.678;2022-12-07T16:21:41;4.30;89.50
3850;DHT22;1940;51.052;13.678;2022-12-07T16:24:08;4.30;89.60
3850;DHT22;1940;51.052;13.678;2022-12-07T16:26:35;4.20;89.10
3850;DHT22;1940;51.052;13.678;2022-12-07T16:29:01;4.10;89.60
3850;DHT22;1940;51.052;13.678;2022-12-07T16:31:27;4.10;89.60
3850;DHT22;1940;51.052;13.678;2022-12-07T16:33:54;4.10;89.40
3850;DHT22;1940;51.052;13.678;2022-12-07T16:36:20;4.10;89.30
3850;DHT22;1940;51.052;13.678;2022-12-07T16:38:47;4.10;89.30
3850;DHT22;1940;51.052;13.678;2022-12-07T16:41:13;4.20;88.70
3850;DHT22;1940;51.052;13.678;2022-12-07T16:43:39;4.20;88.60
3850;DHT22;1940;51.052;13.678;2022-12-07T16:46:05;4.20;88.40
3850;DHT22;1940;51.052;13.678;2022-12-07T16:48:31;4.10;88.70
3850;DHT22;1940;51.052;13.678;2022-12-07T16:50:56;4.10;88.50
3850;DHT22;1940;51.052;13.678;2022-12-07T16:53:23;4.10;88.60
3850;DHT22;1940;51.052;13.678;2022-12-07T16:55:49;4.10;88.30
3850;DHT22;1940;51.052;13.678;2022-12-07T16:58:16;4.10;88.40
3850;DHT22;1940;51.052;13.678;2022-12-07T17:00:43;4.10;88.40
3850;DHT22;1940;51.052;13.678;2022-12-07T17:03:08;4.10;88.50
3850;DHT22;1940;51.052;13.678;2022-12-07T17:05:38;4.10;88.40
3850;DHT22;1940;51.052;13.678;2022-12-07T17:08:04;4.10;88.50
3850;DHT22;1940;51.052;13.678;2022-12-07T17:10:29;4.10;88.70
3850;DHT22;1940;51.052;13.678;2022-12-07T17:12:55;4.10;88.90
3850;DHT22;1940;51.052;13.678;2022-12-07T17:15:20;4.00;89.10
3850;DHT22;1940;51.052;13.678;2022-12-07T17:17:55;4.00;89.30
3850;DHT22;1940;51.052;13.678;2022-12-07T17:20:22;4.00;89.60
3850;DHT22;1940;51.052;13.678;2022-12-07T17:22:49;4.00;89.50
3850;DHT22;1940;51.052;13.678;2022-12-07T17:25:16;4.10;89.50
3850;DHT22;1940;51.052;13.678;2022-12-07T17:27:42;4.10;89.40
3850;DHT22;1940;51.052;13.678;2022-12-07T17:30:09;4.00;89.70
3850;DHT22;1940;51.052;13.678;2022-12-07T17:32:34;4.00;89.80
3850;DHT22;1940;51.052;13.678;2022-12-07T17:35:00;4.00;90.10
3850;DHT22;1940;51.052;13.678;2022-12-07T17:37:26;4.00;89.90
3850;DHT22;1940;51.052;13.678;2022-12-07T17:39:52;4.00;89.80
3850;DHT22;1940;51.052;13.678;2022-12-07T17:42:18;4.00;89.80
3850;DHT22;1940;51.052;13.678;2022-12-07T17:45:08;4.00;90.00
3850;DHT22;1940;51.052;13.678;2022-12-07T17:47:34;4.00;90.00
3850;DHT22;1940;51.052;13.678;2022-12-07T17:50:00;4.00;89.70
3850;DHT22;1940;51.052;13.678;2022-12-07T17:52:26;4.00;89.80
3850;DHT22;1940;51.052;13.678;2022-12-07T17:55:10;4.00;90.00
3850;DHT22;1940;51.052;13.678;2022-12-07T17:57:36;4.10;89.50